sensor_id;sensor_type;location;lat;lon;timestamp;P1;durP1;ratioP1;P2;durP2;ratioP2
22034;SDS011;11181;51.002;4.356;2022-09-24T00:01:47;11.10;;;8.87;;
22034;SDS011;11181;51.002;4.356;2022-09-24T00:04:15;12.60;;;8.73;;
22034;SDS011;11181;51.002;4.356;2022-09-24T00:06:43;13.33;;;9.50;;
22034;SDS011;11181;51.002;4.356;2022-09-24T00:09:12;14.13;;;9.50;;
22034;SDS011;11181;51.002;4.356;2022-09-24T00:11:40;11.87;;;9.60;;
22034;SDS011;11181;51.002;4.356;2022-09-24T00:14:09;14.90;;;10.57;;
22034;SDS011;11181;51.002;4.356;2022-09-24T00:16:38;17.40;;;11.60;;
22034;SDS011;11181;51.002;4.356;2022-09-24T00:19:06;14.33;;;11.30;;
22034;SDS011;11181;51.002;4.356;2022-09-24T00:21:34;14.73;;;11.57;;
22034;SDS011;11181;51.002;4.356;2022-09-24T00:24:03;16.07;;;11.67;;
22034;SDS011;11181;51.002;4.356;2022-09-24T00:26:31;14.20;;;11.33;;
22034;SDS011;11181;51.002;4.356;2022-09-24T00:29:17;15.33;;;12.30;;
22034;SDS011;11181;51.002;4.356;2022-09-24T00:31:47;13.97;;;10.87;;
22034;SDS011;11181;51.002;4.356;2022-09-24T00:34:14;15.90;;;11.43;;
22034;SDS011;11181;51.002;4.356;2022-09-24T00:36:42;16.87;;;12.13;;
22034;SDS011;11181;51.002;4.356;2022-09-24T00:39:10;15.63;;;11.13;;
22034;SDS011;11181;51.002;4.356;2022-09-24T00:41:38;14.73;;;10.97;;
22034;SDS011;11181;51.002;4.356;2022-09-24T00:47:37;14.17;;;10.73;;
22034;SDS011;11181;51.002;4.356;2022-09-24T00:50:16;13.63;;;10.17;;
22034;SDS011;11181;51.002;4.356;2022-09-24T00:52:46;15.73;;;10.83;;
22034;SDS011;11181;51.002;4.356;2022-09-24T00:55:17;14.23;;;10.23;;
22034;SDS011;11181;51.002;4.356;2022-09-24T00:57:45;15.80;;;10.67;;
22034;SDS011;11181;51.002;4.356;2022-09-24T01:00:14;15.17;;;10.43;;
22034;SDS011;11181;51.002;4.356;2022-09-24T01:02:43;15.57;;;10.13;;
22034;SDS011;11181;51.002;4.356;2022-09-24T01:05:12;18.83;;;11.70;;
22034;SDS011;11181;51.002;4.356;2022-09-24T01:07:39;13.77;;;10.00;;
22034;SDS011;11181;51.002;4.356;2022-09-24T01:10:06;12.63;;;9.77;;
22034;SDS011;11181;51.002;4.356;2022-09-24T01:12:36;13.30;;;9.67;;
22034;SDS011;11181;51.002;4.356;2022-09-24T01:15:11;14.03;;;9.80;;
22034;SDS011;11181;51.002;4.356;2022-09-24T01:17:49;13.87;;;10.10;;
22034;SDS011;11181;51.002;4.356;2022-09-24T01:20:27;14.17;;;9.77;;
22034;SDS011;11181;51.002;4.356;2022-09-24T01:23:22;12.00;;;8.60;;
22034;SDS011;11181;51.002;4.356;2022-09-24T01:26:18;12.63;;;9.40;;
22034;SDS011;11181;51.002;4.356;2022-09-24T01:29:16;12.07;;;8.37;;
22034;SDS011;11181;51.002;4.356;2022-09-24T01:31:56;12.03;;;9.03;;
22034;SDS011;11181;51.002;4.356;2022-09-24T01:34:28;11.97;;;8.20;;
22034;SDS011;11181;51.002;4.356;2022-09-24T01:36:59;11.57;;;8.10;;
22034;SDS011;11181;51.002;4.356;2022-09-24T01:39:27;12.50;;;8.67;;
22034;SDS011;11181;51.002;4.356;2022-09-24T01:41:56;11.37;;;7.87;;
22034;SDS011;11181;51.002;4.356;2022-09-24T01:44:25;12.93;;;8.70;;
22034;SDS011;11181;51.002;4.356;2022-09-24T01:46:53;11.63;;;8.73;;
22034;SDS011;11181;51.002;4.356;2022-09-24T01:49:20;15.63;;;9.13;;
22034;SDS011;11181;51.002;4.356;2022-09-24T01:51:48;12.70;;;7.90;;
22034;SDS011;11181;51.002;4.356;2022-09-24T01:54:21;9.23;;;7.90;;
22034;SDS011;11181;51.002;4.356;2022-09-24T01:56:52;13.63;;;7.73;;
22034;SDS011;11181;51.002;4.356;2022-09-24T01:59:27;12.23;;;8.77;;
22034;SDS011;11181;51.002;4.356;2022-09-24T02:01:58;14.37;;;8.27;;
22034;SDS011;11181;51.002;4.356;2022-09-24T02:04:30;13.33;;;9.00;;
22034;SDS011;11181;51.002;4.356;2022-09-24T02:07:05;12.70;;;8.07;;
22034;SDS011;11181;51.002;4.356;2022-09-24T02:09:38;12.37;;;8.33;;
22034;SDS011;11181;51.002;4.356;2022-09-24T02:12:07;10.37;;;7.97;;
22034;SDS011;11181;51.002;4.356;2022-09-24T02:14:38;14.17;;;8.87;;
22034;SDS011;11181;51.002;4.356;2022-09-24T02:17:10;12.33;;;8.97;;
22034;SDS011;11181;51.002;4.356;2022-09-24T02:19:38;12.83;;;8.67;;
22034;SDS011;11181;51.002;4.356;2022-09-24T02:22:07;12.57;;;8.83;;
22034;SDS011;11181;51.002;4.356;2022-09-24T02:24:36;12.87;;;8.87;;
22034;SDS011;11181;51.002;4.356;2022-09-24T02:27:10;13.70;;;8.63;;
22034;SDS011;11181;51.002;4.356;2022-09-24T02:29:38;16.33;;;9.63;;
22034;SDS011;11181;51.002;4.356;2022-09-24T02:32:05;13.77;;;9.43;;
22034;SDS011;11181;51.002;4.356;2022-09-24T02:34:36;11.30;;;8.53;;
22034;SDS011;11181;51.002;4.356;2022-09-24T02:37:06;13.57;;;9.37;;
22034;SDS011;11181;51.002;4.356;2022-09-24T02:39:35;14.13;;;10.00;;
22034;SDS011;11181;51.002;4.356;2022-09-24T02:42:02;13.17;;;9.10;;
22034;SDS011;11181;51.002;4.356;2022-09-24T02:44:30;13.30;;;9.73;;
22034;SDS011;11181;51.002;4.356;2022-09-24T02:46:59;14.70;;;9.97;;
22034;SDS011;11181;51.002;4.356;2022-09-24T02:49:25;15.37;;;11.37;;
22034;SDS011;11181;51.002;4.356;2022-09-24T02:51:53;12.80;;;9.97;;
22034;SDS011;11181;51.002;4.356;2022-09-24T02:54:21;14.40;;;10.73;;
22034;SDS011;11181;51.002;4.356;2022-09-24T02:56:48;18.73;;;11.37;;
22034;SDS011;11181;51.002;4.356;2022-09-24T02:59:14;15.40;;;10.33;;
22034;SDS011;11181;51.002;4.356;2022-09-24T03:01:43;15.43;;;11.37;;
22034;SDS011;11181;51.002;4.356;2022-09-24T03:04:12;15.53;;;10.33;;
22034;SDS011;11181;51.002;4.356;2022-09-24T03:06:39;12.97;;;9.73;;
22034;SDS011;11181;51.002;4.356;2022-09-24T03:09:06;15.77;;;10.73;;
22034;SDS011;11181;51.002;4.356;2022-09-24T03:11:33;13.73;;;10.63;;
22034;SDS011;11181;51.002;4.356;2022-09-24T03:14:00;15.20;;;11.27;;
22034;SDS011;11181;51.002;4.356;2022-09-24T03:16:27;15.40;;;9.23;;
22034;SDS011;11181;51.002;4.356;2022-09-24T03:18:54;13.57;;;10.03;;
22034;SDS011;11181;51.002;4.356;2022-09-24T03:21:22;13.27;;;9.90;;
22034;SDS011;11181;51.002;4.356;2022-09-24T03:23:49;14.37;;;9.87;;
22034;SDS011;11181;51.002;4.356;2022-09-24T03:26:16;13.70;;;10.70;;
22034;SDS011;11181;51.002;4.356;2022-09-24T03:28:44;12.90;;;9.40;;
22034;SDS011;11181;51.002;4.356;2022-09-24T03:31:11;15.10;;;9.93;;
22034;SDS011;11181;51.002;4.356;2022-09-24T03:33:38;16.17;;;10.77;;
22034;SDS011;11181;51.002;4.356;2022-09-24T03:36:07;14.97;;;10.23;;
22034;SDS011;11181;51.002;4.356;2022-09-24T03:38:37;14.00;;;10.37;;
22034;SDS011;11181;51.002;4.356;2022-09-24T03:41:06;15.07;;;9.53;;
22034;SDS011;11181;51.002;4.356;2022-09-24T03:43:34;14.73;;;10.50;;
22034;SDS011;11181;51.002;4.356;2022-09-24T03:46:01;11.13;;;8.80;;
22034;SDS011;11181;51.002;4.356;2022-09-24T03:48:30;15.10;;;9.93;;
22034;SDS011;11181;51.002;4.356;2022-09-24T03:51:01;14.30;;;9.43;;
22034;SDS011;11181;51.002;4.356;2022-09-24T03:53:29;13.60;;;9.33;;
22034;SDS011;11181;51.002;4.356;2022-09-24T03:55:58;14.83;;;9.97;;
22034;SDS011;11181;51.002;4.356;2022-09-24T03:58:26;13.60;;;9.53;;
22034;SDS011;11181;51.002;4.356;2022-09-24T04:00:55;12.90;;;9.90;;
22034;SDS011;11181;51.002;4.356;2022-09-24T04:03:23;14.80;;;10.60;;
22034;SDS011;11181;51.002;4.356;2022-09-24T04:05:50;15.80;;;11.13;;
22034;SDS011;11181;51.002;4.356;2022-09-24T04:08:17;17.27;;;11.27;;
22034;SDS011;11181;51.002;4.356;2022-09-24T04:10:45;15.17;;;11.00;;
22034;SDS011;11181;51.002;4.356;2022-09-24T04:13:14;15.87;;;10.73;;
22034;SDS011;11181;51.002;4.356;2022-09-24T04:15:41;18.07;;;11.53;;
22034;SDS011;11181;51.002;4.356;2022-09-24T04:18:08;14.40;;;9.97;;
22034;SDS011;11181;51.002;4.356;2022-09-24T04:20:35;16.97;;;11.43;;
22034;SDS011;11181;51.002;4.356;2022-09-24T04:23:02;18.77;;;10.70;;
22034;SDS011;11181;51.002;4.356;2022-09-24T04:25:30;15.40;;;10.30;;
22034;SDS011;11181;51.002;4.356;2022-09-24T04:27:58;15.67;;;10.23;;
22034;SDS011;11181;51.002;4.356;2022-09-24T04:30:28;19.43;;;11.10;;
22034;SDS011;11181;51.002;4.356;2022-09-24T04:32:55;13.03;;;10.00;;
22034;SDS011;11181;51.002;4.356;2022-09-24T04:35:24;18.70;;;10.60;;
22034;SDS011;11181;51.002;4.356;2022-09-24T04:37:51;15.90;;;10.80;;
22034;SDS011;11181;51.002;4.356;2022-09-24T04:40:20;15.80;;;9.90;;
22034;SDS011;11181;51.002;4.356;2022-09-24T04:42:47;16.40;;;10.23;;
22034;SDS011;11181;51.002;4.356;2022-09-24T04:45:14;14.73;;;11.23;;
22034;SDS011;11181;51.002;4.356;2022-09-24T04:47:43;15.13;;;11.07;;
22034;SDS011;11181;51.002;4.356;2022-09-24T04:50:10;13.57;;;10.03;;
22034;SDS011;11181;51.002;4.356;2022-09-24T04:52:37;17.20;;;11.60;;
22034;SDS011;11181;51.002;4.356;2022-09-24T04:55:04;15.20;;;11.67;;
22034;SDS011;11181;51.002;4.356;2022-09-24T04:57:32;18.30;;;12.57;;
22034;SDS011;11181;51.002;4.356;2022-09-24T05:00:00;16.63;;;11.10;;
22034;SDS011;11181;51.002;4.356;2022-09-24T05:02:27;15.90;;;11.07;;
22034;SDS011;11181;51.002;4.356;2022-09-24T05:04:55;16.33;;;10.23;;
22034;SDS011;11181;51.002;4.356;2022-09-24T05:07:22;17.70;;;12.80;;
22034;SDS011;11181;51.002;4.356;2022-09-24T05:09:49;18.20;;;12.53;;
22034;SDS011;11181;51.002;4.356;2022-09-24T05:12:16;16.23;;;11.13;;
22034;SDS011;11181;51.002;4.356;2022-09-24T05:14:44;18.20;;;12.43;;
22034;SDS011;11181;51.002;4.356;2022-09-24T05:17:11;16.67;;;11.03;;
22034;SDS011;11181;51.002;4.356;2022-09-24T05:19:38;18.27;;;11.80;;
22034;SDS011;11181;51.002;4.356;2022-09-24T05:22:06;19.17;;;12.90;;
22034;SDS011;11181;51.002;4.356;2022-09-24T05:24:33;16.83;;;11.97;;
22034;SDS011;11181;51.002;4.356;2022-09-24T05:27:00;16.53;;;11.47;;
22034;SDS011;11181;51.002;4.356;2022-09-24T05:29:35;17.73;;;12.63;;
22034;SDS011;11181;51.002;4.356;2022-09-24T05:32:04;17.40;;;12.00;;
22034;SDS011;11181;51.002;4.356;2022-09-24T05:34:32;18.97;;;13.50;;
22034;SDS011;11181;51.002;4.356;2022-09-24T05:36:59;18.23;;;13.07;;
22034;SDS011;11181;51.002;4.356;2022-09-24T05:39:28;16.67;;;12.83;;
22034;SDS011;11181;51.002;4.356;2022-09-24T05:41:55;15.20;;;11.33;;
22034;SDS011;11181;51.002;4.356;2022-09-24T05:44:22;17.60;;;12.47;;
22034;SDS011;11181;51.002;4.356;2022-09-24T05:46:50;17.53;;;11.77;;
22034;SDS011;11181;51.002;4.356;2022-09-24T05:49:17;19.83;;;12.20;;
22034;SDS011;11181;51.002;4.356;2022-09-24T05:51:46;19.57;;;12.70;;
22034;SDS011;11181;51.002;4.356;2022-09-24T05:54:13;18.40;;;12.63;;
22034;SDS011;11181;51.002;4.356;2022-09-24T05:56:41;18.43;;;12.07;;
22034;SDS011;11181;51.002;4.356;2022-09-24T05:59:09;16.17;;;11.40;;
22034;SDS011;11181;51.002;4.356;2022-09-24T06:01:36;17.77;;;12.87;;
22034;SDS011;11181;51.002;4.356;2022-09-24T06:04:03;16.57;;;12.97;;
22034;SDS011;11181;51.002;4.356;2022-09-24T06:06:30;19.80;;;12.60;;
22034;SDS011;11181;51.002;4.356;2022-09-24T06:08:57;19.80;;;13.20;;
22034;SDS011;11181;51.002;4.356;2022-09-24T06:11:23;18.77;;;12.17;;
22034;SDS011;11181;51.002;4.356;2022-09-24T06:14:00;20.43;;;13.97;;
22034;SDS011;11181;51.002;4.356;2022-09-24T06:16:30;19.60;;;13.60;;
22034;SDS011;11181;51.002;4.356;2022-09-24T06:18:58;17.63;;;11.93;;
22034;SDS011;11181;51.002;4.356;2022-09-24T06:21:25;20.80;;;13.77;;
22034;SDS011;11181;51.002;4.356;2022-09-24T06:23:52;21.47;;;13.33;;
22034;SDS011;11181;51.002;4.356;2022-09-24T06:26:18;20.03;;;12.77;;
22034;SDS011;11181;51.002;4.356;2022-09-24T06:28:45;18.40;;;13.47;;
22034;SDS011;11181;51.002;4.356;2022-09-24T06:31:14;18.30;;;12.90;;
22034;SDS011;11181;51.002;4.356;2022-09-24T06:33:41;18.67;;;14.00;;
22034;SDS011;11181;51.002;4.356;2022-09-24T06:36:08;18.53;;;14.20;;
22034;SDS011;11181;51.002;4.356;2022-09-24T06:38:35;22.83;;;14.53;;
22034;SDS011;11181;51.002;4.356;2022-09-24T06:41:03;20.97;;;14.73;;
22034;SDS011;11181;51.002;4.356;2022-09-24T06:43:31;22.30;;;14.33;;
22034;SDS011;11181;51.002;4.356;2022-09-24T06:45:59;23.57;;;14.43;;
22034;SDS011;11181;51.002;4.356;2022-09-24T06:48:29;19.80;;;14.77;;
22034;SDS011;11181;51.002;4.356;2022-09-24T06:50:56;22.50;;;15.70;;
22034;SDS011;11181;51.002;4.356;2022-09-24T06:53:23;23.60;;;15.33;;
22034;SDS011;11181;51.002;4.356;2022-09-24T06:55:51;19.77;;;14.50;;
22034;SDS011;11181;51.002;4.356;2022-09-24T06:58:21;19.37;;;14.07;;
22034;SDS011;11181;51.002;4.356;2022-09-24T07:00:51;23.33;;;14.03;;
22034;SDS011;11181;51.002;4.356;2022-09-24T07:03:20;17.30;;;12.83;;
22034;SDS011;11181;51.002;4.356;2022-09-24T07:05:49;18.90;;;13.97;;
22034;SDS011;11181;51.002;4.356;2022-09-24T07:08:16;22.63;;;14.00;;
22034;SDS011;11181;51.002;4.356;2022-09-24T07:10:43;22.77;;;14.23;;
22034;SDS011;11181;51.002;4.356;2022-09-24T07:13:13;18.57;;;13.07;;
22034;SDS011;11181;51.002;4.356;2022-09-24T07:15:40;18.63;;;12.87;;
22034;SDS011;11181;51.002;4.356;2022-09-24T07:18:08;18.57;;;13.03;;
22034;SDS011;11181;51.002;4.356;2022-09-24T07:20:35;19.60;;;13.07;;
22034;SDS011;11181;51.002;4.356;2022-09-24T07:23:04;20.27;;;13.67;;
22034;SDS011;11181;51.002;4.356;2022-09-24T07:25:31;20.30;;;13.77;;
22034;SDS011;11181;51.002;4.356;2022-09-24T07:28:00;20.30;;;13.40;;
22034;SDS011;11181;51.002;4.356;2022-09-24T07:30:28;19.53;;;12.70;;
22034;SDS011;11181;51.002;4.356;2022-09-24T07:32:55;21.17;;;14.13;;
22034;SDS011;11181;51.002;4.356;2022-09-24T07:35:23;21.60;;;14.80;;
22034;SDS011;11181;51.002;4.356;2022-09-24T07:37:55;20.80;;;13.63;;
22034;SDS011;11181;51.002;4.356;2022-09-24T07:40:24;19.00;;;14.00;;
22034;SDS011;11181;51.002;4.356;2022-09-24T07:42:52;18.97;;;12.97;;
22034;SDS011;11181;51.002;4.356;2022-09-24T07:45:19;20.97;;;15.40;;
22034;SDS011;11181;51.002;4.356;2022-09-24T07:47:46;19.53;;;13.47;;
22034;SDS011;11181;51.002;4.356;2022-09-24T07:50:13;18.90;;;13.77;;
22034;SDS011;11181;51.002;4.356;2022-09-24T07:52:41;20.20;;;13.37;;
22034;SDS011;11181;51.002;4.356;2022-09-24T07:55:09;28.90;;;15.07;;
22034;SDS011;11181;51.002;4.356;2022-09-24T07:57:37;17.90;;;12.93;;
22034;SDS011;11181;51.002;4.356;2022-09-24T08:00:04;22.97;;;14.03;;
22034;SDS011;11181;51.002;4.356;2022-09-24T08:02:33;20.00;;;13.63;;
22034;SDS011;11181;51.002;4.356;2022-09-24T08:05:00;19.77;;;13.80;;
22034;SDS011;11181;51.002;4.356;2022-09-24T08:07:27;22.73;;;15.30;;
22034;SDS011;11181;51.002;4.356;2022-09-24T08:09:53;17.53;;;12.30;;
22034;SDS011;11181;51.002;4.356;2022-09-24T08:12:20;17.47;;;13.07;;
22034;SDS011;11181;51.002;4.356;2022-09-24T08:14:52;16.90;;;12.87;;
22034;SDS011;11181;51.002;4.356;2022-09-24T08:17:19;19.87;;;12.60;;
22034;SDS011;11181;51.002;4.356;2022-09-24T08:19:46;20.07;;;12.60;;
22034;SDS011;11181;51.002;4.356;2022-09-24T08:22:13;21.33;;;13.23;;
22034;SDS011;11181;51.002;4.356;2022-09-24T08:24:39;17.67;;;12.27;;
22034;SDS011;11181;51.002;4.356;2022-09-24T08:27:07;19.67;;;13.07;;
22034;SDS011;11181;51.002;4.356;2022-09-24T08:29:34;17.40;;;12.73;;
22034;SDS011;11181;51.002;4.356;2022-09-24T08:32:03;15.17;;;11.50;;
22034;SDS011;11181;51.002;4.356;2022-09-24T08:34:29;16.20;;;10.97;;
22034;SDS011;11181;51.002;4.356;2022-09-24T08:37:02;13.77;;;10.67;;
22034;SDS011;11181;51.002;4.356;2022-09-24T08:39:30;15.00;;;11.03;;
22034;SDS011;11181;51.002;4.356;2022-09-24T08:41:58;14.83;;;11.17;;
22034;SDS011;11181;51.002;4.356;2022-09-24T08:44:29;16.07;;;10.63;;
22034;SDS011;11181;51.002;4.356;2022-09-24T08:47:23;13.47;;;10.70;;
22034;SDS011;11181;51.002;4.356;2022-09-24T08:50:05;16.13;;;10.50;;
22034;SDS011;11181;51.002;4.356;2022-09-24T08:52:49;14.83;;;10.60;;
22034;SDS011;11181;51.002;4.356;2022-09-24T08:55:28;15.63;;;10.80;;
22034;SDS011;11181;51.002;4.356;2022-09-24T08:57:59;14.03;;;10.17;;
22034;SDS011;11181;51.002;4.356;2022-09-24T09:00:42;15.63;;;10.70;;
22034;SDS011;11181;51.002;4.356;2022-09-24T09:03:16;16.67;;;10.73;;
22034;SDS011;11181;51.002;4.356;2022-09-24T09:05:52;14.77;;;10.03;;
22034;SDS011;11181;51.002;4.356;2022-09-24T09:08:26;15.43;;;9.97;;
22034;SDS011;11181;51.002;4.356;2022-09-24T09:11:00;12.40;;;9.93;;
22034;SDS011;11181;51.002;4.356;2022-09-24T09:13:30;15.60;;;10.10;;
22034;SDS011;11181;51.002;4.356;2022-09-24T09:16:03;10.77;;;8.30;;
22034;SDS011;11181;51.002;4.356;2022-09-24T09:18:38;14.00;;;9.40;;
22034;SDS011;11181;51.002;4.356;2022-09-24T09:21:10;12.93;;;9.07;;
22034;SDS011;11181;51.002;4.356;2022-09-24T09:23:42;16.37;;;11.30;;
22034;SDS011;11181;51.002;4.356;2022-09-24T09:26:13;14.30;;;9.87;;
22034;SDS011;11181;51.002;4.356;2022-09-24T09:28:42;15.43;;;10.57;;
22034;SDS011;11181;51.002;4.356;2022-09-24T09:31:13;13.77;;;9.63;;
22034;SDS011;11181;51.002;4.356;2022-09-24T09:33:55;13.83;;;9.57;;
22034;SDS011;11181;51.002;4.356;2022-09-24T09:36:34;14.53;;;10.87;;
22034;SDS011;11181;51.002;4.356;2022-09-24T09:39:20;16.60;;;13.83;;
22034;SDS011;11181;51.002;4.356;2022-09-24T09:41:55;15.50;;;10.87;;
22034;SDS011;11181;51.002;4.356;2022-09-24T09:44:29;14.60;;;9.87;;
22034;SDS011;11181;51.002;4.356;2022-09-24T09:47:03;18.40;;;11.30;;
22034;SDS011;11181;51.002;4.356;2022-09-24T09:49:39;18.23;;;11.03;;
22034;SDS011;11181;51.002;4.356;2022-09-24T09:52:17;16.47;;;11.13;;
22034;SDS011;11181;51.002;4.356;2022-09-24T09:54:46;16.07;;;11.17;;
22034;SDS011;11181;51.002;4.356;2022-09-24T09:57:14;18.10;;;11.10;;
22034;SDS011;11181;51.002;4.356;2022-09-24T09:59:44;19.20;;;12.40;;
22034;SDS011;11181;51.002;4.356;2022-09-24T10:02:16;17.37;;;12.43;;
22034;SDS011;11181;51.002;4.356;2022-09-24T10:04:52;19.67;;;12.03;;
22034;SDS011;11181;51.002;4.356;2022-09-24T10:07:21;15.83;;;11.33;;
22034;SDS011;11181;51.002;4.356;2022-09-24T10:09:57;16.67;;;10.93;;
22034;SDS011;11181;51.002;4.356;2022-09-24T10:12:26;17.13;;;12.10;;
22034;SDS011;11181;51.002;4.356;2022-09-24T10:14:58;17.17;;;10.60;;
22034;SDS011;11181;51.002;4.356;2022-09-24T10:17:29;15.13;;;11.27;;
22034;SDS011;11181;51.002;4.356;2022-09-24T10:20:05;19.80;;;14.07;;
22034;SDS011;11181;51.002;4.356;2022-09-24T10:22:34;13.43;;;10.53;;
22034;SDS011;11181;51.002;4.356;2022-09-24T10:25:03;13.47;;;9.93;;
22034;SDS011;11181;51.002;4.356;2022-09-24T10:27:32;16.83;;;11.30;;
22034;SDS011;11181;51.002;4.356;2022-09-24T10:30:00;18.63;;;11.63;;
22034;SDS011;11181;51.002;4.356;2022-09-24T10:32:54;16.60;;;11.57;;
22034;SDS011;11181;51.002;4.356;2022-09-24T10:35:26;21.00;;;11.77;;
22034;SDS011;11181;51.002;4.356;2022-09-24T10:37:56;19.83;;;13.27;;
22034;SDS011;11181;51.002;4.356;2022-09-24T10:40:24;20.87;;;12.50;;
22034;SDS011;11181;51.002;4.356;2022-09-24T10:42:55;19.60;;;13.00;;
22034;SDS011;11181;51.002;4.356;2022-09-24T10:45:24;19.40;;;12.73;;
22034;SDS011;11181;51.002;4.356;2022-09-24T10:47:57;17.03;;;11.93;;
22034;SDS011;11181;51.002;4.356;2022-09-24T10:50:35;18.33;;;13.13;;
22034;SDS011;11181;51.002;4.356;2022-09-24T10:53:11;20.77;;;14.03;;
22034;SDS011;11181;51.002;4.356;2022-09-24T10:55:43;17.10;;;13.17;;
22034;SDS011;11181;51.002;4.356;2022-09-24T10:58:28;17.03;;;12.47;;
22034;SDS011;11181;51.002;4.356;2022-09-24T11:01:13;18.93;;;11.97;;
22034;SDS011;11181;51.002;4.356;2022-09-24T11:06:42;18.13;;;12.73;;
22034;SDS011;11181;51.002;4.356;2022-09-24T11:09:18;18.73;;;11.50;;
22034;SDS011;11181;51.002;4.356;2022-09-24T11:11:55;15.13;;;11.97;;
22034;SDS011;11181;51.002;4.356;2022-09-24T11:17:32;16.67;;;11.90;;
22034;SDS011;11181;51.002;4.356;2022-09-24T11:20:19;16.67;;;11.90;;
22034;SDS011;11181;51.002;4.356;2022-09-24T11:23:00;17.83;;;12.83;;
22034;SDS011;11181;51.002;4.356;2022-09-24T11:25:44;17.17;;;11.73;;
22034;SDS011;11181;51.002;4.356;2022-09-24T11:28:22;16.47;;;11.47;;
22034;SDS011;11181;51.002;4.356;2022-09-24T11:31:02;13.97;;;11.97;;
22034;SDS011;11181;51.002;4.356;2022-09-24T11:33:43;16.73;;;11.17;;
22034;SDS011;11181;51.002;4.356;2022-09-24T11:36:26;16.67;;;11.53;;
22034;SDS011;11181;51.002;4.356;2022-09-24T11:39:08;17.97;;;11.93;;
22034;SDS011;11181;51.002;4.356;2022-09-24T11:41:48;16.60;;;11.00;;
22034;SDS011;11181;51.002;4.356;2022-09-24T11:47:24;15.30;;;12.13;;
22034;SDS011;11181;51.002;4.356;2022-09-24T11:50:13;16.83;;;12.27;;
22034;SDS011;11181;51.002;4.356;2022-09-24T11:52:49;17.27;;;11.90;;
22034;SDS011;11181;51.002;4.356;2022-09-24T11:55:21;14.50;;;11.00;;
22034;SDS011;11181;51.002;4.356;2022-09-24T11:57:57;14.27;;;10.33;;
22034;SDS011;11181;51.002;4.356;2022-09-24T12:00:31;14.77;;;10.60;;
22034;SDS011;11181;51.002;4.356;2022-09-24T12:03:04;14.67;;;10.93;;
22034;SDS011;11181;51.002;4.356;2022-09-24T12:05:39;17.33;;;10.33;;
22034;SDS011;11181;51.002;4.356;2022-09-24T12:08:10;13.30;;;10.53;;
22034;SDS011;11181;51.002;4.356;2022-09-24T12:10:45;17.43;;;11.47;;
22034;SDS011;11181;51.002;4.356;2022-09-24T12:13:19;14.63;;;10.30;;
22034;SDS011;11181;51.002;4.356;2022-09-24T12:15:49;13.47;;;9.83;;
22034;SDS011;11181;51.002;4.356;2022-09-24T12:18:22;15.13;;;10.37;;
22034;SDS011;11181;51.002;4.356;2022-09-24T12:20:53;14.13;;;9.57;;
22034;SDS011;11181;51.002;4.356;2022-09-24T12:23:26;14.40;;;10.53;;
22034;SDS011;11181;51.002;4.356;2022-09-24T12:25:57;17.80;;;11.17;;
22034;SDS011;11181;51.002;4.356;2022-09-24T12:28:28;13.40;;;10.10;;
22034;SDS011;11181;51.002;4.356;2022-09-24T12:31:21;12.53;;;9.60;;
22034;SDS011;11181;51.002;4.356;2022-09-24T12:34:12;12.23;;;10.00;;
22034;SDS011;11181;51.002;4.356;2022-09-24T12:36:46;12.60;;;8.87;;
22034;SDS011;11181;51.002;4.356;2022-09-24T12:39:21;13.50;;;9.40;;
22034;SDS011;11181;51.002;4.356;2022-09-24T12:41:56;13.70;;;10.50;;
22034;SDS011;11181;51.002;4.356;2022-09-24T12:44:28;12.27;;;9.17;;
22034;SDS011;11181;51.002;4.356;2022-09-24T12:47:03;15.63;;;10.17;;
22034;SDS011;11181;51.002;4.356;2022-09-24T12:49:38;14.57;;;11.47;;
22034;SDS011;11181;51.002;4.356;2022-09-24T12:52:14;17.90;;;12.63;;
22034;SDS011;11181;51.002;4.356;2022-09-24T12:54:43;14.77;;;12.20;;
22034;SDS011;11181;51.002;4.356;2022-09-24T12:57:14;16.97;;;12.93;;
22034;SDS011;11181;51.002;4.356;2022-09-24T12:59:49;17.10;;;13.17;;
22034;SDS011;11181;51.002;4.356;2022-09-24T13:02:19;20.27;;;14.60;;
22034;SDS011;11181;51.002;4.356;2022-09-24T13:04:51;19.47;;;15.03;;
22034;SDS011;11181;51.002;4.356;2022-09-24T13:07:40;16.93;;;13.50;;
22034;SDS011;11181;51.002;4.356;2022-09-24T13:10:11;18.83;;;14.97;;
22034;SDS011;11181;51.002;4.356;2022-09-24T13:12:49;18.03;;;14.90;;
22034;SDS011;11181;51.002;4.356;2022-09-24T13:15:20;18.97;;;14.10;;
22034;SDS011;11181;51.002;4.356;2022-09-24T13:18:03;18.30;;;13.53;;
22034;SDS011;11181;51.002;4.356;2022-09-24T13:20:42;16.57;;;13.20;;
22034;SDS011;11181;51.002;4.356;2022-09-24T13:23:11;16.10;;;12.87;;
22034;SDS011;11181;51.002;4.356;2022-09-24T13:25:40;13.33;;;10.77;;
22034;SDS011;11181;51.002;4.356;2022-09-24T13:28:21;11.13;;;9.53;;
22034;SDS011;11181;51.002;4.356;2022-09-24T13:30:50;8.10;;;7.30;;
22034;SDS011;11181;51.002;4.356;2022-09-24T13:33:24;7.07;;;6.10;;
22034;SDS011;11181;51.002;4.356;2022-09-24T13:36:03;7.07;;;6.37;;
22034;SDS011;11181;51.002;4.356;2022-09-24T13:38:37;5.73;;;5.23;;
22034;SDS011;11181;51.002;4.356;2022-09-24T13:41:13;4.60;;;4.20;;
22034;SDS011;11181;51.002;4.356;2022-09-24T13:44:03;7.67;;;5.37;;
22034;SDS011;11181;51.002;4.356;2022-09-24T13:46:37;6.17;;;5.23;;
22034;SDS011;11181;51.002;4.356;2022-09-24T13:49:09;5.53;;;4.57;;
22034;SDS011;11181;51.002;4.356;2022-09-24T13:51:43;7.07;;;4.70;;
22034;SDS011;11181;51.002;4.356;2022-09-24T13:54:16;6.03;;;5.40;;
22034;SDS011;11181;51.002;4.356;2022-09-24T13:56:55;7.23;;;5.03;;
22034;SDS011;11181;51.002;4.356;2022-09-24T13:59:25;5.90;;;4.50;;
22034;SDS011;11181;51.002;4.356;2022-09-24T14:01:52;5.43;;;4.33;;
22034;SDS011;11181;51.002;4.356;2022-09-24T14:04:20;5.43;;;4.30;;
22034;SDS011;11181;51.002;4.356;2022-09-24T14:06:48;4.50;;;3.77;;
22034;SDS011;11181;51.002;4.356;2022-09-24T14:09:23;3.40;;;3.10;;
22034;SDS011;11181;51.002;4.356;2022-09-24T14:11:53;3.17;;;2.87;;
22034;SDS011;11181;51.002;4.356;2022-09-24T14:14:23;3.17;;;2.70;;
22034;SDS011;11181;51.002;4.356;2022-09-24T14:16:53;3.43;;;2.67;;
22034;SDS011;11181;51.002;4.356;2022-09-24T14:19:30;2.90;;;2.70;;
22034;SDS011;11181;51.002;4.356;2022-09-24T14:21:58;2.17;;;1.97;;
22034;SDS011;11181;51.002;4.356;2022-09-24T14:24:27;2.30;;;2.10;;
22034;SDS011;11181;51.002;4.356;2022-09-24T14:26:57;2.20;;;1.77;;
22034;SDS011;11181;51.002;4.356;2022-09-24T14:29:27;1.90;;;1.80;;
22034;SDS011;11181;51.002;4.356;2022-09-24T14:32:01;2.10;;;1.87;;
22034;SDS011;11181;51.002;4.356;2022-09-24T14:34:31;2.43;;;2.17;;
22034;SDS011;11181;51.002;4.356;2022-09-24T14:37:05;5.67;;;2.10;;
22034;SDS011;11181;51.002;4.356;2022-09-24T14:39:36;4.47;;;2.00;;
22034;SDS011;11181;51.002;4.356;2022-09-24T14:42:07;2.00;;;1.77;;
22034;SDS011;11181;51.002;4.356;2022-09-24T14:44:36;2.23;;;2.00;;
22034;SDS011;11181;51.002;4.356;2022-09-24T14:47:20;2.07;;;1.87;;
22034;SDS011;11181;51.002;4.356;2022-09-24T14:49:50;2.13;;;1.83;;
22034;SDS011;11181;51.002;4.356;2022-09-24T14:52:24;2.10;;;1.90;;
22034;SDS011;11181;51.002;4.356;2022-09-24T14:55:15;3.30;;;2.10;;
22034;SDS011;11181;51.002;4.356;2022-09-24T14:57:44;3.47;;;1.93;;
22034;SDS011;11181;51.002;4.356;2022-09-24T15:00:19;2.50;;;2.30;;
22034;SDS011;11181;51.002;4.356;2022-09-24T15:02:51;3.47;;;2.40;;